createdAt,value
2022-10-20T00:00:07.976Z,76.65
2022-10-20T00:02:10.612Z,76.71
2022-10-20T00:04:13.302Z,76.12
2022-10-20T00:06:19.848Z,75.69
2022-10-20T00:08:22.727Z,74.21
2022-10-20T00:10:25.360Z,75.15
2022-10-20T00:12:27.932Z,76.06
2022-10-20T00:14:30.508Z,75.96
2022-10-20T00:16:38.033Z,75.92
2022-10-20T00:18:40.944Z,76.28
2022-10-20T00:20:43.632Z,76.09
2022-10-20T00:22:46.260Z,76.67
2022-10-20T00:24:48.826Z,76.40
2022-10-20T00:26:51.400Z,75.68
2022-10-20T00:28:54.689Z,76.37
2022-10-20T00:30:57.884Z,75.68
2022-10-20T00:33:02.869Z,75.68
2022-10-20T00:35:06.842Z,75.84
2022-10-20T00:37:09.469Z,76.43
2022-10-20T00:39:12.009Z,76.08
2022-10-20T00:41:15.800Z,75.58
2022-10-20T00:43:18.972Z,75.63
2022-10-20T00:45:23.124Z,75.68
2022-10-20T00:47:36.879Z,75.16
2022-10-20T00:49:41.680Z,75.29
2022-10-20T00:51:44.899Z,75.06
2022-10-20T00:53:49.688Z,74.80
2022-10-20T00:55:55.727Z,74.46
2022-10-20T00:58:01.854Z,73.87
2022-10-20T01:00:06.484Z,74.67
2022-10-20T01:02:10.405Z,74.35
2022-10-20T01:04:13.228Z,74.75
2022-10-20T01:06:20.052Z,74.73
2022-10-20T01:08:22.610Z,74.58
2022-10-20T01:10:27.891Z,74.62
2022-10-20T01:12:39.598Z,74.42
2022-10-20T01:14:50.327Z,75.25
2022-10-20T01:17:03.952Z,75.96
2022-10-20T01:19:25.144Z,76.05
2022-10-20T01:21:48.704Z,76.15
2022-10-20T01:24:06.862Z,74.91
2022-10-20T01:26:43.603Z,75.79
2022-10-20T01:28:55.702Z,76.66
2022-10-20T01:31:01.104Z,77.19
2022-10-20T01:33:13.635Z,77.02
2022-10-20T01:35:25.340Z,77.02
2022-10-20T01:37:48.427Z,77.08
2022-10-20T01:39:55.411Z,77.41
2022-10-20T01:42:01.676Z,77.09
2022-10-20T01:44:09.387Z,77.41
2022-10-20T01:46:13.633Z,77.15
2022-10-20T01:48:21.175Z,76.77
2022-10-20T01:50:25.954Z,77.01
2022-10-20T01:52:30.156Z,76.95
2022-10-20T01:54:32.752Z,77.41
2022-10-20T01:56:40.905Z,77.54
2022-10-20T01:59:15.351Z,77.00
2022-10-20T02:01:27.600Z,76.88
2022-10-20T02:03:39.639Z,76.87
2022-10-20T02:05:53.921Z,76.80
2022-10-20T02:08:04.995Z,77.23
2022-10-20T02:10:13.486Z,77.33
2022-10-20T02:12:20.515Z,77.56
2022-10-20T02:14:24.869Z,77.21
2022-10-20T02:16:30.889Z,77.17
2022-10-20T02:18:37.924Z,76.95
2022-10-20T02:20:44.405Z,77.27
2022-10-20T02:22:48.740Z,77.93
2022-10-20T02:24:51.490Z,77.71
2022-10-20T02:26:58.594Z,78.08
2022-10-20T02:29:04.820Z,77.70
2022-10-20T02:31:09.487Z,77.75
2022-10-20T02:33:13.122Z,78.02
2022-10-20T02:35:19.601Z,78.40
2022-10-20T02:37:22.173Z,78.11
2022-10-20T02:39:24.788Z,77.71
2022-10-20T02:41:27.647Z,77.83
2022-10-20T02:43:30.205Z,77.88
2022-10-20T02:45:32.742Z,77.16
2022-10-20T02:47:36.983Z,77.67
2022-10-20T02:49:39.770Z,77.42
2022-10-20T02:51:42.348Z,77.44
2022-10-20T02:53:45.169Z,77.46
2022-10-20T02:55:47.750Z,77.48
2022-10-20T02:57:51.209Z,77.46
2022-10-20T02:59:54.276Z,78.04
2022-10-20T03:01:56.945Z,77.96
2022-10-20T03:04:00.871Z,77.97
2022-10-20T03:06:08.937Z,77.83
2022-10-20T03:08:11.636Z,77.64
2022-10-20T03:10:14.179Z,77.79
2022-10-20T03:12:16.816Z,77.71
2022-10-20T03:14:19.385Z,77.56
2022-10-20T03:16:21.990Z,77.23
2022-10-20T03:18:24.707Z,77.76
2022-10-20T03:20:28.629Z,77.97
2022-10-20T03:22:31.292Z,78.32
2022-10-20T03:24:33.918Z,78.14
2022-10-20T03:26:36.581Z,78.34
2022-10-20T03:28:39.332Z,78.55
2022-10-20T03:30:41.987Z,79.63
2022-10-20T03:32:44.680Z,80.31
2022-10-20T03:34:47.257Z,80.71
2022-10-20T03:36:51.233Z,80.44
2022-10-20T03:38:53.820Z,80.76
2022-10-20T03:40:56.482Z,81.18
2022-10-20T03:42:59.140Z,81.28
2022-10-20T03:45:01.714Z,81.40
2022-10-20T03:47:04.317Z,81.38
2022-10-20T03:49:06.866Z,81.74
2022-10-20T03:51:10.127Z,81.94
2022-10-20T03:53:15.342Z,82.12
2022-10-20T03:55:19.521Z,82.02
2022-10-20T03:57:22.160Z,81.46
2022-10-20T03:59:26.793Z,80.89
2022-10-20T04:01:33.901Z,80.71
2022-10-20T04:03:36.513Z,80.91
2022-10-20T04:05:39.119Z,80.76
2022-10-20T04:07:41.891Z,81.22
2022-10-20T04:09:45.795Z,80.61
2022-10-20T04:11:48.380Z,80.75
2022-10-20T04:13:51.595Z,80.76
2022-10-20T04:15:54.193Z,80.47
2022-10-20T04:17:56.772Z,80.40
2022-10-20T04:19:59.363Z,79.66
2022-10-20T04:22:02.076Z,79.42
2022-10-20T04:24:05.501Z,78.95
2022-10-20T04:26:15.049Z,79.24
2022-10-20T04:28:21.356Z,78.64
2022-10-20T04:30:23.964Z,78.57
2022-10-20T04:32:26.643Z,79.26
2022-10-20T04:34:29.201Z,79.36
2022-10-20T04:36:31.797Z,79.44
2022-10-20T04:38:35.684Z,79.02
2022-10-20T04:40:38.285Z,79.28
2022-10-20T04:42:42.215Z,79.12
2022-10-20T04:44:44.827Z,78.94
2022-10-20T04:46:47.440Z,78.85
2022-10-20T04:48:53.506Z,79.21
2022-10-20T04:51:03.522Z,78.96
2022-10-20T04:53:06.146Z,78.86
2022-10-20T04:55:09.879Z,79.09
2022-10-20T04:57:12.437Z,78.75
2022-10-20T04:59:16.338Z,78.53
2022-10-20T05:01:19.504Z,78.35
2022-10-20T05:03:22.325Z,78.52
2022-10-20T05:05:24.922Z,78.92
2022-10-20T05:07:30.356Z,78.78
2022-10-20T05:09:33.134Z,78.89
2022-10-20T05:11:38.206Z,79.16
2022-10-20T05:13:41.144Z,79.86
2022-10-20T05:15:45.081Z,79.98
2022-10-20T05:17:47.665Z,79.38
2022-10-20T05:19:52.601Z,79.62
2022-10-20T05:21:55.300Z,80.01
2022-10-20T05:23:58.920Z,80.43
2022-10-20T05:26:03.534Z,80.43
2022-10-20T05:28:06.895Z,80.92
2022-10-20T05:30:10.739Z,81.30
2022-10-20T05:32:14.671Z,81.05
2022-10-20T05:34:17.649Z,80.33
2022-10-20T05:36:22.097Z,80.26
2022-10-20T05:38:24.664Z,79.91
2022-10-20T05:40:27.277Z,79.96
2022-10-20T05:42:29.929Z,79.88
2022-10-20T05:44:32.610Z,79.82
2022-10-20T05:46:38.315Z,79.52
2022-10-20T05:48:43.278Z,79.60
2022-10-20T05:52:53.912Z,79.32
2022-10-20T05:54:56.493Z,79.27
2022-10-20T05:56:59.079Z,79.78
2022-10-20T05:59:01.751Z,79.82
2022-10-20T06:01:09.330Z,79.71
2022-10-20T06:03:13.941Z,79.27
2022-10-20T06:05:21.356Z,80.08
2022-10-20T06:07:24.033Z,80.24
2022-10-20T06:09:26.649Z,79.88
2022-10-20T06:11:29.223Z,79.90
2022-10-20T06:13:32.086Z,79.99
2022-10-20T06:15:34.699Z,79.33
2022-10-20T06:17:37.321Z,80.33
2022-10-20T06:19:42.129Z,80.24
2022-10-20T06:21:47.437Z,80.40
2022-10-20T06:23:52.413Z,79.60
2022-10-20T06:25:55.076Z,79.71
2022-10-20T06:28:00.694Z,79.96
2022-10-20T06:30:03.307Z,79.16
2022-10-20T06:32:06.516Z,80.16
2022-10-20T06:34:12.566Z,79.97
2022-10-20T06:36:16.556Z,79.56
2022-10-20T06:38:20.493Z,79.86
2022-10-20T06:40:23.095Z,79.98
2022-10-20T06:42:25.753Z,79.91
2022-10-20T06:44:28.423Z,79.63
2022-10-20T06:46:32.643Z,79.83
2022-10-20T06:48:36.176Z,79.60
2022-10-20T06:50:38.775Z,79.46
2022-10-20T06:52:41.402Z,79.65
2022-10-20T06:54:45.344Z,79.75
2022-10-20T06:56:47.948Z,79.75
2022-10-20T06:58:52.463Z,79.65
2022-10-20T07:00:59.876Z,80.19
2022-10-20T07:03:02.462Z,80.47
2022-10-20T07:05:05.842Z,80.02
2022-10-20T07:07:08.624Z,79.85
2022-10-20T07:09:14.930Z,79.63
2022-10-20T07:11:20.790Z,79.74
2022-10-20T07:13:23.377Z,80.58
2022-10-20T07:15:26.016Z,80.66
2022-10-20T07:17:28.651Z,80.67
2022-10-20T07:19:31.737Z,80.75
2022-10-20T07:21:40.202Z,80.57
2022-10-20T07:23:44.968Z,80.93
2022-10-20T07:25:47.574Z,81.27
2022-10-20T07:27:51.503Z,81.63
2022-10-20T07:29:54.376Z,82.10
2022-10-20T07:31:58.809Z,82.59
2022-10-20T07:34:12.880Z,82.90
2022-10-20T07:36:18.264Z,82.90
2022-10-20T07:38:20.901Z,82.63
2022-10-20T07:42:31.037Z,81.90
2022-10-20T07:44:37.418Z,82.11
2022-10-20T07:46:40.032Z,81.97
2022-10-20T07:48:43.035Z,81.57
2022-10-20T07:50:47.628Z,81.57
2022-10-20T07:52:52.076Z,81.43
2022-10-20T07:55:06.263Z,81.40
2022-10-20T07:57:17.217Z,81.05
2022-10-20T07:59:20.163Z,80.94
2022-10-20T08:01:24.206Z,81.11
2022-10-20T08:03:26.837Z,81.29
2022-10-20T08:05:30.038Z,81.32
2022-10-20T08:07:32.585Z,81.26
2022-10-20T08:09:35.249Z,81.43
2022-10-20T08:11:37.915Z,81.28
2022-10-20T08:13:41.097Z,81.21
2022-10-20T08:15:48.851Z,81.66
2022-10-20T08:17:52.819Z,81.47
2022-10-20T08:22:12.957Z,81.40
2022-10-20T08:24:15.611Z,81.59
2022-10-20T08:26:20.238Z,81.50
2022-10-20T08:28:24.788Z,81.47
2022-10-20T08:30:28.903Z,81.53
2022-10-20T08:32:31.458Z,81.68
2022-10-20T08:34:35.453Z,81.87
2022-10-20T08:36:38.138Z,82.08
2022-10-20T08:38:42.543Z,82.10
2022-10-20T08:40:45.416Z,82.22
2022-10-20T08:42:50.127Z,81.97
2022-10-20T08:44:55.341Z,81.92
2022-10-20T08:46:58.504Z,81.73
2022-10-20T08:49:02.717Z,81.45
2022-10-20T08:51:06.948Z,81.10
2022-10-20T08:53:12.905Z,81.04
2022-10-20T08:55:23.451Z,81.15
2022-10-20T08:57:28.539Z,81.12
2022-10-20T08:59:39.099Z,80.79
2022-10-20T09:01:42.421Z,80.49
2022-10-20T09:03:45.054Z,80.17
2022-10-20T09:05:52.857Z,80.07
2022-10-20T09:07:56.816Z,80.16
2022-10-20T09:10:05.608Z,80.03
2022-10-20T09:12:13.415Z,80.22
2022-10-20T09:14:16.849Z,80.17
2022-10-20T09:16:40.466Z,79.82
2022-10-20T09:18:54.061Z,78.96
2022-10-20T09:21:00.745Z,78.75
2022-10-20T09:23:16.614Z,78.93
2022-10-20T09:25:27.523Z,79.06
2022-10-20T09:27:34.827Z,79.29
2022-10-20T09:29:40.355Z,79.75
2022-10-20T09:31:45.167Z,79.57
2022-10-20T09:33:47.817Z,79.40
2022-10-20T09:35:51.869Z,78.08
2022-10-20T09:38:17.625Z,77.42
2022-10-20T09:40:20.919Z,77.69
2022-10-20T09:42:29.761Z,77.58
2022-10-20T09:44:34.816Z,77.47
2022-10-20T09:46:40.791Z,76.83
2022-10-20T09:48:48.982Z,77.21
2022-10-20T09:50:55.149Z,77.00
2022-10-20T09:53:00.564Z,76.63
2022-10-20T09:55:08.735Z,76.77
2022-10-20T09:57:19.019Z,77.33
2022-10-20T09:59:25.194Z,77.17
2022-10-20T10:01:28.013Z,77.13
2022-10-20T10:03:39.917Z,77.40
2022-10-20T10:05:42.566Z,77.22
2022-10-20T10:07:45.462Z,76.94
2022-10-20T10:09:53.771Z,76.72
2022-10-20T10:12:03.304Z,76.65
2022-10-20T10:14:06.684Z,76.46
2022-10-20T10:16:11.357Z,76.71
2022-10-20T10:18:15.709Z,76.50
2022-10-20T10:20:33.344Z,76.54
2022-10-20T10:22:36.958Z,76.66
2022-10-20T10:24:43.507Z,76.28
2022-10-20T10:26:52.855Z,76.66
2022-10-20T10:29:00.348Z,76.91
2022-10-20T10:31:19.510Z,76.96
2022-10-20T10:33:28.268Z,76.67
2022-10-20T10:35:34.381Z,76.18
2022-10-20T10:37:39.594Z,75.99
2022-10-20T10:39:43.151Z,75.13
2022-10-20T10:42:00.183Z,74.76
2022-10-20T10:44:12.191Z,74.10
2022-10-20T10:46:20.201Z,74.18
2022-10-20T10:48:54.300Z,74.00
2022-10-20T10:50:59.885Z,74.20
2022-10-20T10:53:14.339Z,74.96
2022-10-20T10:55:48.453Z,75.22
2022-10-20T10:57:56.288Z,75.49
2022-10-20T11:00:03.113Z,75.69
2022-10-20T11:02:41.375Z,75.13
2022-10-20T11:05:18.410Z,74.93
2022-10-20T11:07:30.558Z,74.93
2022-10-20T11:09:45.330Z,74.92
2022-10-20T11:12:00.985Z,74.84
2022-10-20T11:14:16.739Z,74.84
2022-10-20T11:16:37.092Z,75.27
2022-10-20T11:19:01.447Z,75.27
2022-10-20T11:21:21.307Z,74.76
2022-10-20T11:23:50.006Z,74.60
2022-10-20T11:25:59.338Z,74.74
2022-10-20T11:28:02.256Z,73.92
2022-10-20T11:30:15.561Z,73.60
2022-10-20T11:32:26.662Z,72.99
2022-10-20T11:34:34.713Z,72.88
2022-10-20T11:36:43.401Z,73.04
2022-10-20T11:38:50.319Z,73.11
2022-10-20T11:41:00.508Z,73.49
2022-10-20T11:43:13.832Z,73.10
2022-10-20T11:45:40.418Z,72.95
2022-10-20T11:47:47.810Z,73.15
2022-10-20T11:49:50.475Z,73.52
2022-10-20T11:52:28.036Z,73.69
2022-10-20T11:54:46.831Z,73.64
2022-10-20T11:57:02.227Z,74.07
2022-10-20T11:59:32.985Z,74.01
2022-10-20T12:01:41.608Z,74.54
2022-10-20T12:04:09.080Z,75.27
2022-10-20T12:06:33.257Z,76.19
2022-10-20T12:09:11.555Z,76.60
2022-10-20T12:11:19.415Z,77.13
2022-10-20T12:13:33.222Z,76.69
2022-10-20T12:15:46.409Z,76.81
2022-10-20T12:17:50.554Z,76.12
2022-10-20T12:20:29.333Z,76.16
2022-10-20T12:22:41.777Z,76.33
2022-10-20T12:25:05.276Z,76.31
2022-10-20T12:27:27.606Z,76.39
2022-10-20T12:30:00.170Z,76.08
2022-10-20T12:32:25.753Z,76.10
2022-10-20T12:34:40.301Z,76.30
2022-10-20T12:36:44.310Z,76.42
2022-10-20T12:38:49.021Z,76.46
2022-10-20T12:40:57.753Z,76.28
2022-10-20T12:43:01.299Z,76.34
2022-10-20T12:45:07.572Z,76.62
2022-10-20T12:47:11.789Z,77.10
2022-10-20T12:49:25.613Z,77.63
2022-10-20T12:51:41.229Z,77.71
2022-10-20T12:53:55.242Z,77.93
2022-10-20T12:55:59.550Z,78.07
2022-10-20T12:58:12.941Z,78.51
2022-10-20T13:00:58.478Z,78.61
2022-10-20T13:03:01.214Z,78.48
2022-10-20T13:05:24.905Z,78.93
2022-10-20T13:08:17.329Z,79.04
2022-10-20T13:10:37.760Z,79.16
2022-10-20T13:12:41.748Z,79.14
2022-10-20T13:14:55.599Z,79.24
2022-10-20T13:17:12.741Z,79.64
2022-10-20T13:19:20.647Z,79.32
2022-10-20T13:21:34.907Z,79.55
2022-10-20T13:23:40.743Z,80.02
2022-10-20T13:25:47.171Z,80.03
2022-10-20T13:27:51.353Z,80.26
2022-10-20T13:29:54.347Z,80.26
2022-10-20T13:32:06.990Z,80.40
2022-10-20T13:34:19.394Z,80.45
2022-10-20T13:36:47.048Z,80.28
2022-10-20T13:38:59.817Z,80.42
2022-10-20T13:41:08.743Z,80.27
2022-10-20T13:43:30.484Z,79.91
2022-10-20T13:45:44.755Z,79.72
2022-10-20T13:47:51.040Z,79.37
2022-10-20T13:50:05.645Z,78.90
2022-10-20T13:52:14.761Z,78.68
2022-10-20T13:54:23.569Z,78.76
2022-10-20T13:56:35.271Z,78.64
2022-10-20T13:58:39.176Z,78.90
2022-10-20T14:00:41.843Z,79.25
2022-10-20T14:02:54.138Z,79.24
2022-10-20T14:05:03.899Z,79.55
2022-10-20T14:07:09.935Z,79.51
2022-10-20T14:09:17.816Z,79.89
2022-10-20T14:11:20.976Z,80.16
2022-10-20T14:13:27.623Z,80.04
2022-10-20T14:15:34.564Z,80.08
2022-10-20T14:17:40.665Z,80.20
2022-10-20T14:19:46.101Z,80.42
2022-10-20T14:21:50.989Z,80.55
2022-10-20T14:23:53.685Z,80.71
2022-10-20T14:25:57.853Z,80.67
2022-10-20T14:28:05.114Z,80.60
2022-10-20T14:30:17.142Z,80.77
2022-10-20T14:32:23.740Z,80.69
2022-10-20T14:34:29.798Z,80.71
2022-10-20T14:36:32.496Z,80.93
2022-10-20T14:38:37.897Z,81.08
2022-10-20T14:40:40.631Z,81.14
2022-10-20T14:42:45.731Z,80.98
2022-10-20T14:44:48.805Z,81.04
2022-10-20T14:46:53.426Z,80.81
2022-10-20T14:48:59.441Z,80.83
2022-10-20T14:51:02.659Z,81.00
2022-10-20T14:53:30.807Z,81.30
2022-10-20T14:55:37.116Z,81.51
2022-10-20T14:57:44.283Z,81.30
2022-10-20T14:59:52.156Z,81.58
2022-10-20T15:02:02.173Z,81.30
2022-10-20T15:04:17.460Z,81.36
2022-10-20T15:06:20.117Z,81.51
2022-10-20T15:08:28.368Z,81.92
2022-10-20T15:10:31.879Z,82.15
2022-10-20T15:12:42.561Z,82.62
2022-10-20T15:14:48.710Z,82.49
2022-10-20T15:16:51.469Z,82.48
2022-10-20T15:19:13.912Z,82.50
2022-10-20T15:21:16.472Z,82.28
2022-10-20T15:23:20.608Z,82.63
2022-10-20T15:25:23.633Z,82.59
2022-10-20T15:27:27.137Z,82.73
2022-10-20T15:29:30.943Z,82.83
2022-10-20T15:31:33.650Z,83.22
2022-10-20T15:33:36.326Z,83.53
2022-10-20T15:35:44.530Z,83.57
2022-10-20T15:37:49.549Z,83.65
2022-10-20T15:39:52.136Z,83.53
2022-10-20T15:41:54.725Z,83.59
2022-10-20T15:43:58.133Z,83.77
2022-10-20T15:46:00.779Z,83.75
2022-10-20T15:48:03.401Z,83.65
2022-10-20T15:50:06.514Z,83.80
2022-10-20T15:52:11.502Z,83.86
2022-10-20T15:54:15.992Z,83.88
2022-10-20T15:56:19.444Z,83.91
2022-10-20T15:58:22.025Z,83.67
2022-10-20T16:00:26.554Z,83.71
2022-10-20T16:02:29.185Z,83.62
2022-10-20T16:04:32.363Z,83.68
2022-10-20T16:06:37.847Z,83.77
2022-10-20T16:08:42.184Z,83.90
2022-10-20T16:10:44.915Z,84.32
2022-10-20T16:12:47.544Z,84.36
2022-10-20T16:14:50.125Z,84.90
2022-10-20T16:16:52.765Z,85.03
2022-10-20T16:18:55.348Z,85.25
2022-10-20T16:20:59.250Z,85.26
2022-10-20T16:23:01.844Z,85.08
2022-10-20T16:25:06.481Z,85.12
2022-10-20T16:27:09.070Z,85.08
2022-10-20T16:29:11.681Z,84.86
2022-10-20T16:31:16.783Z,84.88
2022-10-20T16:33:19.381Z,84.99
2022-10-20T16:35:22.574Z,85.24
2022-10-20T16:37:25.263Z,85.33
2022-10-20T16:39:28.146Z,85.25
2022-10-20T16:41:32.107Z,85.04
2022-10-20T16:43:37.826Z,84.38
2022-10-20T16:45:40.661Z,83.55
2022-10-20T16:47:44.508Z,82.64
2022-10-20T16:49:47.081Z,82.37
2022-10-20T16:51:49.694Z,80.66
2022-10-20T16:53:52.310Z,80.09
2022-10-20T16:55:58.598Z,80.47
2022-10-20T16:58:02.506Z,80.93
2022-10-20T17:00:07.000Z,81.30
2022-10-20T17:02:12.214Z,81.65
2022-10-20T17:04:14.814Z,81.55
2022-10-20T17:06:19.085Z,81.95
2022-10-20T17:08:21.634Z,81.72
2022-10-20T17:10:24.184Z,81.64
2022-10-20T17:12:26.876Z,81.60
2022-10-20T17:14:30.797Z,81.67
2022-10-20T17:16:35.819Z,82.01
2022-10-20T17:18:38.877Z,82.51
2022-10-20T17:20:41.474Z,82.86
2022-10-20T17:22:44.046Z,82.89
2022-10-20T17:24:46.660Z,82.77
2022-10-20T17:26:49.206Z,82.85
2022-10-20T17:28:54.925Z,82.51
2022-10-20T17:30:58.884Z,82.46
2022-10-20T17:33:01.425Z,82.63
2022-10-20T17:35:04.046Z,82.79
2022-10-20T17:37:06.643Z,82.73
2022-10-20T17:39:09.589Z,82.93
2022-10-20T17:41:14.446Z,83.25
2022-10-20T17:43:17.717Z,83.20
2022-10-20T17:45:20.329Z,83.43
2022-10-20T17:47:24.227Z,83.45
2022-10-20T17:49:27.842Z,83.47
2022-10-20T17:51:33.668Z,83.45
2022-10-20T17:53:39.929Z,83.44
2022-10-20T17:55:42.510Z,83.56
2022-10-20T17:57:45.123Z,83.62
2022-10-20T17:59:54.038Z,83.71
2022-10-20T18:01:58.039Z,83.73
2022-10-20T18:04:04.299Z,83.73
2022-10-20T18:06:08.619Z,83.72
2022-10-20T18:08:11.425Z,83.73
2022-10-20T18:10:14.022Z,83.58
2022-10-20T18:12:16.677Z,83.25
2022-10-20T18:14:19.627Z,83.48
2022-10-20T18:16:22.867Z,83.26
2022-10-20T18:18:25.445Z,83.39
2022-10-20T18:20:32.227Z,83.26
2022-10-20T18:22:37.103Z,83.31
2022-10-20T18:24:39.933Z,82.95
2022-10-20T18:26:43.013Z,82.71
2022-10-20T18:28:48.398Z,82.81
2022-10-20T18:30:51.270Z,82.68
2022-10-20T18:32:53.857Z,82.18
2022-10-20T18:34:59.043Z,81.67
2022-10-20T18:37:03.544Z,81.97
2022-10-20T18:39:06.627Z,81.90
2022-10-20T18:41:13.908Z,81.93
2022-10-20T18:43:16.508Z,81.93
2022-10-20T18:45:21.350Z,81.83
2022-10-20T18:47:26.387Z,81.72
2022-10-20T18:49:28.965Z,81.75
2022-10-20T18:51:32.064Z,81.99
2022-10-20T18:53:37.888Z,82.06
2022-10-20T18:55:40.523Z,82.52
2022-10-20T18:57:43.113Z,82.62
2022-10-20T18:59:45.706Z,82.88
2022-10-20T19:01:48.965Z,82.92
2022-10-20T19:03:53.604Z,83.15
2022-10-20T19:05:59.753Z,83.55
2022-10-20T19:08:02.321Z,83.81
2022-10-20T19:10:07.195Z,83.95
2022-10-20T19:12:10.710Z,83.90
2022-10-20T19:14:14.510Z,83.89
2022-10-20T19:16:19.019Z,83.61
2022-10-20T19:18:21.669Z,83.91
2022-10-20T19:20:24.229Z,83.85
2022-10-20T19:22:29.221Z,83.73
2022-10-20T19:24:32.177Z,83.94
2022-10-20T19:26:39.115Z,84.01
2022-10-20T19:28:43.979Z,83.73
2022-10-20T19:30:46.596Z,84.13
2022-10-20T19:32:51.325Z,84.33
2022-10-20T19:34:53.939Z,85.33
2022-10-20T19:36:56.768Z,85.71
2022-10-20T19:38:59.439Z,85.66
2022-10-20T19:41:02.064Z,85.81
2022-10-20T19:43:06.009Z,86.13
2022-10-20T19:45:09.040Z,86.73
2022-10-20T19:47:12.644Z,86.81
2022-10-20T19:49:16.138Z,86.63
2022-10-20T19:51:21.186Z,87.00
2022-10-20T19:53:23.866Z,86.41
2022-10-20T19:55:26.599Z,86.61
2022-10-20T19:57:29.825Z,86.39
2022-10-20T19:59:33.747Z,86.73
2022-10-20T20:01:37.122Z,87.10
2022-10-20T20:03:39.741Z,86.99
2022-10-20T20:05:42.393Z,87.01
2022-10-20T20:07:45.015Z,86.94
2022-10-20T20:09:51.586Z,87.09
2022-10-20T20:11:54.532Z,87.30
2022-10-20T20:13:59.739Z,87.48
2022-10-20T20:16:08.657Z,86.86
2022-10-20T20:18:14.586Z,87.07
2022-10-20T20:20:17.534Z,86.97
2022-10-20T20:22:20.302Z,87.16
2022-10-20T20:24:23.014Z,87.48
2022-10-20T20:26:26.830Z,87.52
2022-10-20T20:28:29.497Z,86.97
2022-10-20T20:30:32.275Z,86.45
2022-10-20T20:32:38.606Z,86.03
2022-10-20T20:34:41.927Z,86.26
2022-10-20T20:36:44.492Z,86.49
2022-10-20T20:38:47.207Z,86.08
2022-10-20T20:40:49.845Z,86.69
2022-10-20T20:42:52.390Z,86.98
2022-10-20T20:44:55.046Z,87.23
2022-10-20T20:46:57.644Z,87.15
2022-10-20T20:49:02.201Z,87.16
2022-10-20T20:51:05.806Z,86.77
2022-10-20T20:53:08.704Z,86.50
2022-10-20T20:55:11.356Z,86.93
2022-10-20T20:57:13.953Z,86.60
2022-10-20T20:59:16.558Z,86.53
2022-10-20T21:01:20.795Z,86.41
2022-10-20T21:03:23.388Z,86.57
2022-10-20T21:05:27.344Z,86.65
2022-10-20T21:07:29.915Z,86.72
2022-10-20T21:09:32.638Z,86.26
2022-10-20T21:11:37.306Z,86.48
2022-10-20T21:13:41.324Z,86.08
2022-10-20T21:15:43.996Z,86.63
2022-10-20T21:17:46.549Z,86.50
2022-10-20T21:19:49.245Z,86.50
2022-10-20T21:21:57.320Z,86.64
2022-10-20T21:24:01.194Z,86.19
2022-10-20T21:26:03.881Z,86.24
2022-10-20T21:28:06.528Z,86.54
2022-10-20T21:30:10.136Z,86.71
2022-10-20T21:32:12.764Z,86.77
2022-10-20T21:34:15.864Z,86.57
2022-10-20T21:36:19.787Z,86.15
2022-10-20T21:38:28.597Z,85.64
2022-10-20T21:40:33.021Z,85.89
2022-10-20T21:42:35.903Z,86.17
2022-10-20T21:44:38.615Z,86.25
2022-10-20T21:46:43.933Z,86.46
2022-10-20T21:48:47.986Z,86.48
2022-10-20T21:50:50.550Z,86.14
2022-10-20T21:52:53.175Z,86.28
2022-10-20T21:54:57.128Z,86.26
2022-10-20T21:56:59.729Z,86.23
2022-10-20T21:59:02.316Z,86.51
2022-10-20T22:01:10.376Z,86.90
2022-10-20T22:03:13.001Z,86.83
2022-10-20T22:05:15.724Z,87.02
2022-10-20T22:07:21.103Z,87.24
2022-10-20T22:09:24.453Z,86.86
2022-10-20T22:11:30.949Z,87.17
2022-10-20T22:13:34.373Z,87.42
2022-10-20T22:15:38.484Z,87.35
2022-10-20T22:17:41.035Z,87.24
2022-10-20T22:19:43.819Z,87.13
2022-10-20T22:21:48.572Z,87.44
2022-10-20T22:23:53.830Z,87.49
2022-10-20T22:25:56.453Z,87.08
2022-10-20T22:28:00.379Z,87.02
2022-10-20T22:30:02.962Z,86.84
2022-10-20T22:32:06.038Z,87.14
2022-10-20T22:34:09.914Z,86.98
2022-10-20T22:36:12.524Z,87.11
2022-10-20T22:38:15.110Z,87.56
2022-10-20T22:40:18.032Z,87.34
2022-10-20T22:42:22.628Z,87.40
2022-10-20T22:44:28.770Z,87.28
2022-10-20T22:46:31.384Z,87.22
2022-10-20T22:48:33.966Z,87.51
2022-10-20T22:50:36.587Z,87.35
2022-10-20T22:52:39.567Z,87.32
2022-10-20T22:54:42.443Z,87.27
2022-10-20T22:56:45.045Z,87.03
2022-10-20T22:58:47.891Z,86.96
2022-10-20T23:00:51.880Z,86.59
2022-10-20T23:02:54.509Z,86.40
2022-10-20T23:04:57.101Z,86.47
2022-10-20T23:09:08.016Z,87.21
2022-10-20T23:11:11.092Z,87.07
2022-10-20T23:13:13.646Z,86.98
2022-10-20T23:15:16.436Z,86.38
2022-10-20T23:17:20.346Z,86.61
2022-10-20T23:19:22.935Z,86.74
2022-10-20T23:21:26.380Z,86.94
2022-10-20T23:23:29.236Z,87.13
2022-10-20T23:25:31.906Z,87.00
2022-10-20T23:27:34.778Z,86.87
2022-10-20T23:29:37.560Z,86.34
2022-10-20T23:31:40.175Z,86.33
2022-10-20T23:33:45.604Z,85.51
2022-10-20T23:35:48.688Z,85.70
2022-10-20T23:37:51.595Z,85.46
2022-10-20T23:39:54.171Z,84.67
2022-10-20T23:41:56.775Z,84.20
2022-10-20T23:43:59.344Z,85.00
2022-10-20T23:46:01.943Z,85.43
2022-10-20T23:48:04.664Z,85.71
2022-10-20T23:50:12.000Z,85.95
2022-10-20T23:52:14.568Z,85.99
2022-10-20T23:54:17.120Z,86.37
2022-10-20T23:56:19.744Z,86.63
2022-10-20T23:58:23.163Z,87.13
